createdAt,value
2022-08-09T00:00:11.895Z,70.80
2022-08-09T00:02:42.953Z,71.00
2022-08-09T00:06:18.424Z,71.10
2022-08-09T00:08:09.973Z,71.10
2022-08-09T00:10:38.544Z,71.40
2022-08-09T00:13:16.922Z,71.60
2022-08-09T00:15:57.860Z,71.90
2022-08-09T00:18:29.152Z,72.30
2022-08-09T00:20:55.931Z,72.60
2022-08-09T00:23:55.083Z,72.70
2022-08-09T00:26:14.229Z,72.70
2022-08-09T00:28:52.720Z,72.90
2022-08-09T00:31:50.542Z,73.20
2022-08-09T00:34:13.537Z,73.40
2022-08-09T00:36:41.689Z,73.70
2022-08-09T00:40:01.813Z,74.00
2022-08-09T00:44:14.815Z,74.20
2022-08-09T00:44:47.024Z,74.40
2022-08-09T00:47:15.587Z,74.60
2022-08-09T00:49:43.722Z,74.70
2022-08-09T00:52:22.761Z,74.70
2022-08-09T00:55:01.815Z,75.10
2022-08-09T00:57:35.741Z,75.60
2022-08-09T01:00:21.391Z,75.60
2022-08-09T01:03:06.233Z,75.80
2022-08-09T01:05:55.701Z,75.80
2022-08-09T01:08:40.597Z,76.10
2022-08-09T01:11:38.060Z,76.80
2022-08-09T01:14:21.073Z,77.20
2022-08-09T01:16:55.222Z,77.50
2022-08-09T01:19:51.607Z,77.60
2022-08-09T01:22:33.972Z,77.80
2022-08-09T01:25:07.292Z,78.40
2022-08-09T01:27:38.926Z,78.80
2022-08-09T01:30:09.085Z,79.40
2022-08-09T01:32:58.215Z,79.60
2022-08-09T01:35:38.614Z,79.90
2022-08-09T01:38:18.457Z,80.00
2022-08-09T01:40:52.456Z,80.10
2022-08-09T01:43:31.645Z,80.30
2022-08-09T01:46:18.257Z,80.70
2022-08-09T01:48:55.374Z,80.90
2022-08-09T01:51:26.214Z,81.30
2022-08-09T01:53:57.972Z,81.80
2022-08-09T01:56:26.267Z,82.20
2022-08-09T01:58:55.325Z,82.40
2022-08-09T02:01:30.574Z,82.70
2022-08-09T02:04:14.984Z,83.50
2022-08-09T02:07:04.186Z,84.00
2022-08-09T02:09:42.296Z,84.40
2022-08-09T02:12:18.037Z,84.70
2022-08-09T02:14:52.019Z,84.80
2022-08-09T02:17:59.948Z,85.10
2022-08-09T02:20:25.054Z,85.50
2022-08-09T02:23:17.157Z,86.60
2022-08-09T02:25:55.929Z,86.20
2022-08-09T02:28:31.801Z,86.90
2022-08-09T02:31:25.956Z,87.40
2022-08-09T02:34:13.346Z,88.00
2022-08-09T02:36:54.218Z,88.10
2022-08-09T02:39:39.705Z,87.90
2022-08-09T02:42:17.445Z,88.30
2022-08-09T02:44:56.828Z,88.60
2022-08-09T02:47:24.549Z,89.00
2022-08-09T02:50:01.813Z,88.80
2022-08-09T02:52:37.852Z,88.90
2022-08-09T02:55:20.010Z,89.70
2022-08-09T02:58:00.624Z,90.10
2022-08-09T03:00:58.069Z,90.30
2022-08-09T03:04:12.745Z,90.30
2022-08-09T03:06:14.858Z,90.40
2022-08-09T03:08:46.177Z,90.60
2022-08-09T03:11:29.734Z,90.80
2022-08-09T03:14:15.995Z,91.00
2022-08-09T03:16:47.588Z,91.20
2022-08-09T03:19:59.482Z,91.30
2022-08-09T03:22:12.472Z,91.40
2022-08-09T03:25:00.264Z,91.50
2022-08-09T03:27:50.479Z,92.00
2022-08-09T03:30:30.026Z,91.80
2022-08-09T03:33:05.646Z,92.20
2022-08-09T03:35:44.335Z,92.30
2022-08-09T03:38:33.477Z,92.70
2022-08-09T03:41:05.043Z,92.80
2022-08-09T03:43:36.522Z,92.80
2022-08-09T03:46:20.235Z,93.00
2022-08-09T03:48:55.025Z,93.40
2022-08-09T03:51:57.035Z,93.70
2022-08-09T03:54:11.501Z,94.20
2022-08-09T03:56:42.799Z,94.40
2022-08-09T03:59:20.979Z,94.30
2022-08-09T04:02:00.336Z,94.40
2022-08-09T04:04:36.261Z,94.50
2022-08-09T04:07:06.155Z,94.50
2022-08-09T04:09:48.233Z,94.20
2022-08-09T04:12:49.908Z,93.90
2022-08-09T04:15:42.637Z,93.90
2022-08-09T04:18:09.350Z,94.10
2022-08-09T04:20:48.806Z,94.40
2022-08-09T04:23:17.088Z,94.70
2022-08-09T04:25:51.690Z,95.10
2022-08-09T04:28:33.281Z,95.20
2022-08-09T04:31:10.285Z,95.50
2022-08-09T04:33:51.827Z,95.80
2022-08-09T04:36:24.527Z,96.00
2022-08-09T04:38:54.441Z,96.30
2022-08-09T04:41:23.993Z,96.50
2022-08-09T04:44:06.511Z,96.70
2022-08-09T04:46:58.786Z,96.90
2022-08-09T04:49:52.906Z,97.00
2022-08-09T04:52:26.679Z,97.20
2022-08-09T04:54:59.369Z,97.20
2022-08-09T04:57:26.893Z,97.30
2022-08-09T05:00:13.955Z,97.40
2022-08-09T05:02:48.662Z,97.40
2022-08-09T05:05:32.024Z,97.30
2022-08-09T05:08:06.930Z,97.20
2022-08-09T05:10:36.964Z,97.20
2022-08-09T05:13:04.089Z,97.20
2022-08-09T05:15:39.026Z,97.10
2022-08-09T05:18:42.430Z,96.90
2022-08-09T05:21:10.025Z,96.90
2022-08-09T05:23:57.919Z,97.00
2022-08-09T05:26:45.301Z,97.00
2022-08-09T05:29:22.075Z,97.00
2022-08-09T05:31:56.999Z,97.20
2022-08-09T05:34:30.998Z,97.00
2022-08-09T05:37:07.403Z,96.90
2022-08-09T05:39:42.870Z,97.00
2022-08-09T05:42:18.062Z,96.80
2022-08-09T05:44:52.516Z,96.80
2022-08-09T05:47:24.091Z,96.60
2022-08-09T05:50:29.862Z,96.50
2022-08-09T05:52:41.732Z,96.30
2022-08-09T05:55:20.489Z,96.20
2022-08-09T05:57:50.718Z,96.10
2022-08-09T06:00:33.295Z,96.00
2022-08-09T06:03:03.627Z,95.90
2022-08-09T06:05:54.833Z,95.90
2022-08-09T06:08:27.967Z,95.90
2022-08-09T06:10:58.165Z,95.80
2022-08-09T06:13:34.221Z,95.40
2022-08-09T06:16:05.325Z,95.60
2022-08-09T06:18:33.483Z,95.70
2022-08-09T06:21:01.306Z,95.50
2022-08-09T06:23:57.658Z,95.50
2022-08-09T06:26:20.777Z,95.50
2022-08-09T06:28:50.172Z,95.30
2022-08-09T06:31:31.096Z,94.90
2022-08-09T06:33:58.605Z,94.60
2022-08-09T06:36:29.877Z,94.50
2022-08-09T06:38:57.572Z,94.20
2022-08-09T06:42:07.620Z,94.00
2022-08-09T06:44:18.031Z,93.90
2022-08-09T06:46:49.801Z,93.60
2022-08-09T06:49:44.541Z,93.70
2022-08-09T06:52:10.329Z,93.40
2022-08-09T06:54:38.835Z,93.30
2022-08-09T06:57:11.928Z,92.90
2022-08-09T07:00:56.498Z,92.80
2022-08-09T07:02:29.202Z,92.70
2022-08-09T07:05:00.475Z,92.20
2022-08-09T07:07:59.970Z,92.20
2022-08-09T07:10:29.586Z,91.80
2022-08-09T07:12:58.405Z,92.00
2022-08-09T07:15:53.944Z,91.80
2022-08-09T07:18:17.631Z,91.90
2022-08-09T07:20:47.803Z,91.30
2022-08-09T07:23:20.035Z,91.10
2022-08-09T07:25:52.027Z,91.10
2022-08-09T07:28:28.150Z,91.40
2022-08-09T07:30:55.595Z,91.50
2022-08-09T07:33:23.284Z,91.50
2022-08-09T07:35:53.857Z,91.50
2022-08-09T07:38:23.223Z,91.70
2022-08-09T07:41:11.380Z,92.00
2022-08-09T07:43:41.199Z,92.00
2022-08-09T07:46:22.485Z,91.70
2022-08-09T07:48:59.421Z,91.50
2022-08-09T07:52:04.420Z,91.30
2022-08-09T07:54:28.313Z,91.10
2022-08-09T07:56:58.495Z,90.90
2022-08-09T07:59:45.595Z,90.70
2022-08-09T08:02:19.710Z,90.50
2022-08-09T08:04:49.440Z,90.20
2022-08-09T08:09:00.513Z,90.10
2022-08-09T08:10:10.795Z,90.00
2022-08-09T08:12:45.491Z,89.40
2022-08-09T08:15:17.885Z,90.00
2022-08-09T08:17:53.905Z,88.80
2022-08-09T08:20:30.158Z,87.50
2022-08-09T08:23:17.106Z,87.70
2022-08-09T08:25:49.734Z,87.40
2022-08-09T08:28:31.873Z,86.90
2022-08-09T08:31:00.800Z,86.10
2022-08-09T08:33:40.665Z,85.30
2022-08-09T08:36:29.076Z,85.90
2022-08-09T08:38:57.731Z,85.20
2022-08-09T08:41:24.873Z,86.00
2022-08-09T08:44:13.864Z,85.90
2022-08-09T08:46:59.489Z,85.20
2022-08-09T08:49:33.355Z,85.50
2022-08-09T08:52:10.413Z,84.50
2022-08-09T08:54:40.045Z,84.30
2022-08-09T08:57:11.623Z,83.60
2022-08-09T08:59:46.947Z,83.60
2022-08-09T09:02:31.763Z,83.20
2022-08-09T09:05:06.084Z,82.80
2022-08-09T09:07:42.721Z,83.00
2022-08-09T09:10:11.579Z,81.70
2022-08-09T09:12:39.106Z,79.20
2022-08-09T09:15:09.852Z,78.60
2022-08-09T09:17:49.083Z,79.30
2022-08-09T09:20:20.583Z,78.60
2022-08-09T09:23:01.627Z,78.50
2022-08-09T09:26:04.439Z,77.10
2022-08-09T09:29:01.996Z,76.50
2022-08-09T09:32:06.426Z,76.40
2022-08-09T09:34:18.110Z,76.40
2022-08-09T09:36:52.777Z,75.50
2022-08-09T09:39:42.761Z,74.70
2022-08-09T09:42:29.516Z,75.00
2022-08-09T09:45:06.280Z,73.80
2022-08-09T09:47:42.145Z,73.30
2022-08-09T09:50:22.836Z,73.60
2022-08-09T09:52:53.676Z,72.80
2022-08-09T09:55:32.069Z,72.50
2022-08-09T09:58:18.920Z,71.90
2022-08-09T10:00:58.490Z,71.20
2022-08-09T10:04:01.464Z,71.20
2022-08-09T10:06:43.481Z,69.90
2022-08-09T10:09:22.465Z,69.30
2022-08-09T10:12:14.747Z,68.70
2022-08-09T10:14:52.031Z,67.40
2022-08-09T10:17:54.898Z,67.60
2022-08-09T10:20:27.511Z,65.90
2022-08-09T10:23:22.814Z,64.50
2022-08-09T10:26:06.766Z,64.90
2022-08-09T10:28:39.028Z,63.30
2022-08-09T10:34:09.235Z,62.20
2022-08-09T10:36:38.751Z,61.70
2022-08-09T10:39:15.700Z,62.20
2022-08-09T10:41:43.160Z,61.00
2022-08-09T10:44:10.716Z,61.20
2022-08-09T10:48:17.211Z,61.60
2022-08-09T10:50:14.760Z,61.00
2022-08-09T10:53:05.691Z,60.70
2022-08-09T10:55:55.285Z,61.20
2022-08-09T10:58:34.785Z,61.80
2022-08-09T11:03:02.630Z,61.90
2022-08-09T11:04:27.755Z,61.90
2022-08-09T11:07:03.709Z,62.00
2022-08-09T11:09:52.581Z,61.70
2022-08-09T11:12:26.481Z,60.80
2022-08-09T11:15:18.608Z,60.10
2022-08-09T11:17:53.447Z,59.90
2022-08-09T11:20:41.561Z,60.20
2022-08-09T11:23:13.642Z,59.00
2022-08-09T11:25:47.580Z,59.40
2022-08-09T11:28:38.746Z,59.10
2022-08-09T11:31:49.488Z,59.10
2022-08-09T11:34:45.587Z,58.50
2022-08-09T11:37:27.934Z,59.00
2022-08-09T11:40:07.346Z,58.00
2022-08-09T11:42:38.719Z,58.30
2022-08-09T11:45:26.268Z,57.70
2022-08-09T11:48:26.675Z,57.20
2022-08-09T11:52:48.826Z,56.40
2022-08-09T11:54:01.832Z,56.60
2022-08-09T11:56:42.262Z,56.40
2022-08-09T11:59:30.327Z,56.00
2022-08-09T12:02:34.370Z,56.40
2022-08-09T12:04:58.871Z,55.70
2022-08-09T12:07:41.602Z,55.40
2022-08-09T12:10:14.359Z,55.00
2022-08-09T12:12:57.696Z,54.50
2022-08-09T12:15:49.729Z,54.40
2022-08-09T12:18:25.919Z,53.60
2022-08-09T12:21:00.534Z,53.30
2022-08-09T12:23:58.055Z,53.10
2022-08-09T12:26:19.837Z,53.20
2022-08-09T12:29:14.627Z,52.40
2022-08-09T12:31:59.079Z,53.10
2022-08-09T12:34:41.881Z,52.70
2022-08-09T12:37:24.004Z,52.90
2022-08-09T12:40:09.664Z,52.30
2022-08-09T12:42:39.017Z,51.20
2022-08-09T12:45:32.604Z,51.90
2022-08-09T12:47:57.159Z,51.10
2022-08-09T12:50:25.099Z,51.20
2022-08-09T12:53:09.001Z,51.30
2022-08-09T12:56:14.703Z,50.80
2022-08-09T12:58:33.967Z,51.20
2022-08-09T13:01:04.443Z,50.50
2022-08-09T13:03:56.773Z,51.30
2022-08-09T13:06:34.797Z,49.90
2022-08-09T13:09:06.282Z,49.70
2022-08-09T13:11:39.590Z,50.20
2022-08-09T13:14:42.413Z,49.60
2022-08-09T13:17:14.213Z,48.80
2022-08-09T13:20:09.774Z,48.60
2022-08-09T13:23:00.196Z,48.20
2022-08-09T13:25:21.117Z,47.60
2022-08-09T13:27:55.825Z,47.50
2022-08-09T13:31:10.865Z,46.90
2022-08-09T13:33:20.929Z,45.90
2022-08-09T13:36:37.553Z,45.00
2022-08-09T13:38:57.336Z,44.40
2022-08-09T13:41:58.698Z,44.20
2022-08-09T13:44:16.901Z,43.10
2022-08-09T13:47:26.888Z,43.20
2022-08-09T13:49:39.683Z,41.70
2022-08-09T13:52:20.881Z,41.40
2022-08-09T13:54:59.147Z,41.50
2022-08-09T13:57:36.538Z,41.60
2022-08-09T14:00:09.211Z,40.90
2022-08-09T14:02:42.696Z,40.60
2022-08-09T14:05:58.860Z,40.50
2022-08-09T14:08:15.828Z,39.90
2022-08-09T14:10:49.209Z,39.50
2022-08-09T14:13:27.754Z,39.30
2022-08-09T14:16:10.412Z,38.90
2022-08-09T14:18:45.661Z,38.50
2022-08-09T14:21:24.283Z,38.90
2022-08-09T14:23:54.629Z,39.00
2022-08-09T14:26:33.673Z,39.70
2022-08-09T14:29:08.033Z,39.00
2022-08-09T14:31:55.694Z,39.70
2022-08-09T14:34:27.564Z,38.60
2022-08-09T14:37:06.091Z,38.20
2022-08-09T14:39:47.255Z,37.70
2022-08-09T14:42:40.538Z,37.70
2022-08-09T14:46:40.308Z,37.80
2022-08-09T14:47:59.713Z,37.00
2022-08-09T14:50:32.293Z,37.90
2022-08-09T14:53:13.796Z,36.90
2022-08-09T14:55:49.824Z,36.50
2022-08-09T14:58:17.495Z,36.30
2022-08-09T15:00:48.442Z,36.70
2022-08-09T15:03:20.180Z,36.70
2022-08-09T15:05:54.801Z,36.30
2022-08-09T15:08:30.502Z,36.80
2022-08-09T15:11:00.597Z,36.90
2022-08-09T15:13:56.772Z,36.70
2022-08-09T15:16:18.573Z,36.50
2022-08-09T15:18:49.489Z,36.90
2022-08-09T15:21:55.923Z,37.00
2022-08-09T15:24:13.079Z,37.10
2022-08-09T15:26:48.300Z,36.40
2022-08-09T15:30:57.710Z,36.50
2022-08-09T15:32:29.722Z,36.30
2022-08-09T15:35:00.272Z,36.30
2022-08-09T15:38:10.747Z,35.90
2022-08-09T15:40:32.211Z,35.60
2022-08-09T15:43:01.893Z,36.10
2022-08-09T15:45:30.086Z,36.10
2022-08-09T15:48:06.481Z,36.10
2022-08-09T15:50:48.010Z,36.10
2022-08-09T15:54:02.052Z,36.40
2022-08-09T15:56:21.520Z,36.50
2022-08-09T15:58:48.557Z,37.10
2022-08-09T16:01:20.525Z,38.20
2022-08-09T16:03:50.137Z,38.90
2022-08-09T16:06:32.832Z,39.40
2022-08-09T16:09:06.756Z,40.00
2022-08-09T16:11:36.094Z,40.70
2022-08-09T16:14:08.058Z,41.10
2022-08-09T16:16:42.035Z,41.10
2022-08-09T16:19:15.499Z,41.10
2022-08-09T16:21:43.139Z,41.70
2022-08-09T16:24:33.360Z,42.50
2022-08-09T16:27:01.862Z,42.00
2022-08-09T16:29:37.333Z,42.40
2022-08-09T16:32:19.131Z,42.50
2022-08-09T16:34:58.439Z,42.50
2022-08-09T16:37:55.709Z,42.50
2022-08-09T16:40:17.123Z,42.40
2022-08-09T16:43:00.050Z,42.80
2022-08-09T16:45:32.362Z,43.00
2022-08-09T16:48:39.387Z,43.00
2022-08-09T16:50:59.301Z,43.50
2022-08-09T16:53:34.410Z,43.20
2022-08-09T16:56:03.897Z,43.30
2022-08-09T16:58:42.548Z,43.60
2022-08-09T17:01:24.598Z,43.60
2022-08-09T17:03:56.680Z,43.80
2022-08-09T17:06:29.138Z,43.90
2022-08-09T17:09:10.685Z,44.00
2022-08-09T17:11:44.728Z,43.90
2022-08-09T17:14:25.838Z,43.90
2022-08-09T17:17:00.225Z,44.00
2022-08-09T17:19:47.628Z,44.00
2022-08-09T17:22:23.631Z,44.30
2022-08-09T17:24:55.494Z,44.40
2022-08-09T17:27:23.013Z,44.50
2022-08-09T17:29:51.183Z,44.60
2022-08-09T17:32:26.699Z,45.00
2022-08-09T17:35:11.492Z,44.80
2022-08-09T17:38:14.192Z,44.90
2022-08-09T17:40:36.767Z,45.10
2022-08-09T17:43:32.012Z,45.20
2022-08-09T17:46:05.851Z,45.10
2022-08-09T17:48:52.309Z,45.40
2022-08-09T17:51:20.314Z,45.30
2022-08-09T17:53:55.081Z,45.60
2022-08-09T17:56:35.688Z,45.60
2022-08-09T17:59:09.301Z,45.80
2022-08-09T18:02:06.434Z,45.80
2022-08-09T18:04:27.721Z,45.80
2022-08-09T18:06:55.838Z,46.00
2022-08-09T18:09:25.190Z,46.10
2022-08-09T18:12:15.249Z,46.30
2022-08-09T18:14:53.886Z,46.70
2022-08-09T18:17:27.215Z,46.70
2022-08-09T18:20:55.556Z,47.10
2022-08-09T18:22:59.872Z,47.30
2022-08-09T18:25:50.711Z,47.10
2022-08-09T18:30:33.887Z,47.30
2022-08-09T18:31:07.951Z,47.60
2022-08-09T18:33:37.053Z,47.50
2022-08-09T18:36:06.995Z,47.40
2022-08-09T18:38:36.044Z,47.10
2022-08-09T18:41:02.829Z,47.20
2022-08-09T18:43:35.180Z,47.40
2022-08-09T18:46:49.544Z,47.70
2022-08-09T18:48:51.640Z,47.60
2022-08-09T18:51:38.520Z,47.90
2022-08-09T18:54:16.433Z,48.80
2022-08-09T18:56:53.818Z,48.20
2022-08-09T18:59:22.337Z,48.50
2022-08-09T19:01:54.043Z,48.50
2022-08-09T19:04:34.708Z,48.60
2022-08-09T19:07:02.088Z,48.80
2022-08-09T19:10:14.324Z,49.00
2022-08-09T19:12:22.090Z,49.10
2022-08-09T19:14:52.810Z,49.20
2022-08-09T19:17:21.245Z,49.40
2022-08-09T19:19:51.066Z,49.70
2022-08-09T19:22:29.956Z,49.90
2022-08-09T19:25:09.541Z,50.20
2022-08-09T19:27:47.778Z,50.20
2022-08-09T19:30:22.749Z,50.30
2022-08-09T19:32:55.668Z,50.50
2022-08-09T19:35:26.610Z,50.60
2022-08-09T19:37:57.830Z,50.70
2022-08-09T19:40:34.253Z,50.90
2022-08-09T19:43:05.104Z,51.10
2022-08-09T19:45:38.823Z,51.20
2022-08-09T19:48:06.840Z,51.40
2022-08-09T19:50:48.967Z,51.70
2022-08-09T19:53:20.840Z,51.70
2022-08-09T19:56:05.628Z,52.00
2022-08-09T19:58:33.217Z,51.70
2022-08-09T20:01:00.044Z,52.20
2022-08-09T20:04:09.846Z,52.30
2022-08-09T20:06:23.505Z,52.00
2022-08-09T20:08:57.249Z,52.30
2022-08-09T20:11:43.295Z,52.40
2022-08-09T20:14:20.080Z,52.80
2022-08-09T20:16:54.366Z,52.80
2022-08-09T20:19:49.275Z,53.20
2022-08-09T20:22:14.122Z,52.90
2022-08-09T20:24:42.296Z,53.00
2022-08-09T20:27:09.195Z,53.20
2022-08-09T20:29:39.352Z,53.20
2022-08-09T20:32:33.002Z,53.20
2022-08-09T20:35:02.912Z,53.30
2022-08-09T20:37:36.952Z,53.60
2022-08-09T20:40:24.724Z,53.50
2022-08-09T20:43:11.859Z,53.80
2022-08-09T20:45:59.591Z,53.80
2022-08-09T20:48:31.892Z,54.00
2022-08-09T20:51:00.269Z,54.10
2022-08-09T20:53:37.262Z,54.20
2022-08-09T20:56:20.347Z,54.60
2022-08-09T20:58:58.863Z,54.40
2022-08-09T21:01:34.296Z,54.70
2022-08-09T21:05:53.445Z,54.70
2022-08-09T21:07:11.943Z,54.90
2022-08-09T21:09:55.787Z,54.90
2022-08-09T21:15:23.424Z,55.20
2022-08-09T21:18:22.933Z,55.20
2022-08-09T21:20:54.352Z,55.50
2022-08-09T21:23:36.067Z,55.50
2022-08-09T21:26:11.398Z,55.90
2022-08-09T21:28:40.927Z,55.80
2022-08-09T21:31:49.180Z,55.60
2022-08-09T21:34:21.087Z,55.70
2022-08-09T21:36:56.554Z,55.90
2022-08-09T21:39:28.190Z,55.90
2022-08-09T21:42:10.236Z,56.10
2022-08-09T21:44:38.015Z,56.30
2022-08-09T21:47:09.231Z,56.30
2022-08-09T21:49:42.715Z,56.20
2022-08-09T21:52:18.405Z,56.60
2022-08-09T21:55:02.744Z,56.40
2022-08-09T21:57:36.931Z,56.70
2022-08-09T22:00:09.001Z,56.50
2022-08-09T22:02:36.383Z,56.60
2022-08-09T22:05:08.714Z,56.90
2022-08-09T22:07:52.291Z,56.90
2022-08-09T22:10:23.059Z,57.00
2022-08-09T22:12:52.152Z,56.90
2022-08-09T22:15:23.340Z,57.00
2022-08-09T22:18:01.431Z,57.00
2022-08-09T22:20:31.188Z,57.30
2022-08-09T22:22:58.519Z,57.40
2022-08-09T22:26:05.909Z,57.30
2022-08-09T22:28:14.800Z,57.60
2022-08-09T22:30:56.649Z,57.30
2022-08-09T22:33:24.886Z,57.40
2022-08-09T22:36:05.134Z,57.60
2022-08-09T22:38:45.718Z,58.50
2022-08-09T22:41:13.054Z,57.60
2022-08-09T22:44:03.659Z,57.60
2022-08-09T22:48:14.811Z,57.90
2022-08-09T22:49:18.497Z,58.00
2022-08-09T22:51:49.858Z,58.00
2022-08-09T22:54:27.398Z,58.10
2022-08-09T22:56:56.775Z,58.00
2022-08-09T22:59:58.022Z,58.10
2022-08-09T23:02:20.253Z,58.30
2022-08-09T23:04:53.911Z,58.40
2022-08-09T23:08:23.251Z,58.50
2022-08-09T23:10:28.034Z,58.60
2022-08-09T23:12:54.740Z,58.70
2022-08-09T23:15:23.853Z,58.80
2022-08-09T23:17:50.647Z,59.10
2022-08-09T23:20:19.794Z,59.30
2022-08-09T23:22:48.695Z,59.40
2022-08-09T23:25:15.451Z,59.30
2022-08-09T23:27:58.425Z,59.50
2022-08-09T23:30:36.833Z,59.80
2022-08-09T23:33:03.721Z,59.70
2022-08-09T23:36:06.230Z,59.80
2022-08-09T23:38:20.892Z,59.80
2022-08-09T23:40:54.171Z,60.10
2022-08-09T23:43:21.037Z,60.30
2022-08-09T23:45:50.380Z,60.10
2022-08-09T23:48:17.264Z,60.30
2022-08-09T23:50:46.222Z,60.50
2022-08-09T23:53:15.595Z,60.70
2022-08-09T23:55:49.892Z,60.80
2022-08-09T23:58:27.565Z,61.00
